createdAt,value
2022-11-20T00:01:28.914Z,101693.09
2022-11-20T00:03:59.643Z,101699.19
2022-11-20T00:06:27.997Z,101705.22
2022-11-20T00:09:02.571Z,101717.34
2022-11-20T00:11:34.139Z,101709.53
2022-11-20T00:14:02.953Z,101713.84
2022-11-20T00:16:31.021Z,101715.56
2022-11-20T00:18:57.908Z,101706.06
2022-11-20T00:21:26.934Z,101711.25
2022-11-20T00:23:59.073Z,101702.59
2022-11-20T00:26:28.810Z,101698.28
2022-11-20T00:28:59.968Z,101704.31
2022-11-20T00:31:27.432Z,101702.59
2022-11-20T00:33:54.627Z,101688.75
2022-11-20T00:36:25.587Z,101693.94
2022-11-20T00:38:58.347Z,101690.47
2022-11-20T00:41:26.027Z,101696.53
2022-11-20T00:43:54.656Z,101693.06
2022-11-20T00:46:24.272Z,101689.59
2022-11-20T00:48:51.046Z,101686.13
2022-11-20T00:51:20.219Z,101674.91
2022-11-20T00:53:47.440Z,101682.69
2022-11-20T00:56:19.472Z,101674.03
2022-11-20T00:58:51.202Z,101651.53
2022-11-20T01:01:23.027Z,101661.91
2022-11-20T01:03:51.592Z,101669.69
2022-11-20T01:06:27.513Z,101674.88
2022-11-20T01:08:56.976Z,101678.31
2022-11-20T01:11:31.011Z,101675.69
2022-11-20T01:14:00.590Z,101667.00
2022-11-20T01:16:31.614Z,101680.03
2022-11-20T01:19:01.063Z,101671.41
2022-11-20T01:21:30.826Z,101663.66
2022-11-20T01:24:03.641Z,101650.69
2022-11-20T01:26:35.726Z,101646.38
2022-11-20T01:29:05.292Z,101623.88
2022-11-20T01:31:37.490Z,101627.28
2022-11-20T01:34:07.604Z,101649.75
2022-11-20T01:36:39.533Z,101656.66
2022-11-20T01:39:11.271Z,101655.75
2022-11-20T01:41:56.362Z,101643.66
2022-11-20T01:45:08.175Z,101642.88
2022-11-20T01:47:36.804Z,101648.00
2022-11-20T01:50:35.225Z,101645.41
2022-11-20T01:53:07.400Z,101645.38
2022-11-20T01:55:42.713Z,101638.47
2022-11-20T01:58:10.195Z,101638.47
2022-11-20T02:00:39.714Z,101642.75
2022-11-20T02:03:16.497Z,101630.69
2022-11-20T02:05:50.376Z,101631.56
2022-11-20T02:08:18.700Z,101635.03
2022-11-20T02:10:45.419Z,101623.81
2022-11-20T02:13:30.560Z,101611.66
2022-11-20T02:15:57.342Z,101615.97
2022-11-20T02:18:27.990Z,101627.22
2022-11-20T02:21:02.106Z,101628.09
2022-11-20T02:23:51.521Z,101628.97
2022-11-20T02:26:22.264Z,101619.47
2022-11-20T02:28:50.573Z,101627.25
2022-11-20T02:31:18.197Z,101630.69
2022-11-20T02:33:47.995Z,101630.69
2022-11-20T02:36:17.114Z,101621.13
2022-11-20T02:38:44.732Z,101619.44
2022-11-20T02:41:11.238Z,101628.94
2022-11-20T02:43:39.133Z,101613.38
2022-11-20T02:46:08.156Z,101612.50
2022-11-20T02:48:35.099Z,101610.75
2022-11-20T02:51:03.841Z,101612.50
2022-11-20T02:53:30.486Z,101610.75
2022-11-20T02:55:58.150Z,101609.91
2022-11-20T02:58:25.109Z,101606.44
2022-11-20T03:00:53.477Z,101608.22
2022-11-20T03:03:20.228Z,101600.44
2022-11-20T03:05:46.777Z,101608.19
2022-11-20T03:08:13.327Z,101590.91
2022-11-20T03:10:40.312Z,101597.81
2022-11-20T03:13:07.967Z,101596.94
2022-11-20T03:15:34.725Z,101587.41
2022-11-20T03:18:01.206Z,101579.66
2022-11-20T03:20:27.858Z,101593.50
2022-11-20T03:22:56.452Z,101584.84
2022-11-20T03:25:26.883Z,101583.97
2022-11-20T03:27:54.543Z,101595.19
2022-11-20T03:30:27.555Z,101579.66
2022-11-20T03:32:57.083Z,101575.34
2022-11-20T03:35:24.962Z,101567.53
2022-11-20T03:37:51.650Z,101569.25
2022-11-20T03:40:18.545Z,101565.81
2022-11-20T03:42:48.153Z,101552.84
2022-11-20T03:45:18.925Z,101564.94
2022-11-20T03:47:46.703Z,101569.28
2022-11-20T03:50:15.030Z,101561.53
2022-11-20T03:52:42.504Z,101564.97
2022-11-20T03:55:10.395Z,101559.75
2022-11-20T03:57:38.653Z,101558.91
2022-11-20T04:00:07.567Z,101562.34
2022-11-20T04:02:34.227Z,101567.53
2022-11-20T04:05:01.047Z,101564.97
2022-11-20T04:07:29.672Z,101557.19
2022-11-20T04:09:57.040Z,101541.63
2022-11-20T04:12:23.582Z,101537.31
2022-11-20T04:14:50.023Z,101529.56
2022-11-20T04:17:19.435Z,101536.44
2022-11-20T04:19:49.166Z,101541.56
2022-11-20T04:22:15.740Z,101538.09
2022-11-20T04:24:42.239Z,101536.38
2022-11-20T04:27:08.906Z,101542.47
2022-11-20T04:29:35.722Z,101532.97
2022-11-20T04:32:02.301Z,101533.84
2022-11-20T04:34:28.757Z,101532.13
2022-11-20T04:36:55.703Z,101527.81
2022-11-20T04:39:22.540Z,101519.19
2022-11-20T04:41:49.449Z,101532.16
2022-11-20T04:44:16.059Z,101520.94
2022-11-20T04:46:45.778Z,101517.50
2022-11-20T04:49:12.877Z,101510.59
2022-11-20T04:51:39.596Z,101511.47
2022-11-20T04:54:06.195Z,101514.94
2022-11-20T04:56:32.963Z,101524.41
2022-11-20T04:59:03.940Z,101533.06
2022-11-20T05:01:30.988Z,101529.63
2022-11-20T05:03:57.622Z,101518.41
2022-11-20T05:06:24.471Z,101522.72
2022-11-20T05:08:51.787Z,101521.84
2022-11-20T05:11:21.571Z,101524.41
2022-11-20T05:13:52.255Z,101529.56
2022-11-20T05:16:21.509Z,101529.59
2022-11-20T05:18:55.163Z,101522.69
2022-11-20T05:21:26.338Z,101507.16
2022-11-20T05:23:53.021Z,101502.84
2022-11-20T05:26:23.476Z,101503.72
2022-11-20T05:28:51.137Z,101505.44
2022-11-20T05:31:26.640Z,101494.19
2022-11-20T05:33:54.456Z,101490.75
2022-11-20T05:36:21.373Z,101482.97
2022-11-20T05:38:50.825Z,101491.59
2022-11-20T05:41:20.632Z,101501.09
2022-11-20T05:43:49.017Z,101502.81
2022-11-20T05:46:17.879Z,101511.47
2022-11-20T05:48:45.545Z,101504.56
2022-11-20T05:51:33.624Z,101508.00
2022-11-20T05:54:01.042Z,101501.94
2022-11-20T05:56:28.455Z,101507.13
2022-11-20T05:58:55.806Z,101510.56
2022-11-20T06:01:25.216Z,101509.69
2022-11-20T06:03:54.855Z,101501.94
2022-11-20T06:06:24.505Z,101512.28
2022-11-20T06:08:52.746Z,101516.59
2022-11-20T06:11:20.320Z,101513.16
2022-11-20T06:13:49.196Z,101516.63
2022-11-20T06:16:19.130Z,101517.47
2022-11-20T06:18:47.282Z,101501.94
2022-11-20T06:21:16.792Z,101500.19
2022-11-20T06:23:44.167Z,101515.72
2022-11-20T06:26:25.489Z,101508.81
2022-11-20T06:28:53.754Z,101512.25
2022-11-20T06:31:22.445Z,101505.38
2022-11-20T06:33:49.674Z,101514.88
2022-11-20T06:36:19.028Z,101507.09
2022-11-20T06:38:45.895Z,101512.28
2022-11-20T06:41:17.504Z,101504.53
2022-11-20T06:43:44.771Z,101512.31
2022-11-20T06:46:13.839Z,101509.72
2022-11-20T06:48:42.548Z,101510.59
2022-11-20T06:51:09.425Z,101501.97
2022-11-20T06:53:37.085Z,101502.84
2022-11-20T06:56:04.740Z,101500.25
2022-11-20T06:58:33.859Z,101490.75
2022-11-20T07:01:03.145Z,101489.03
2022-11-20T07:03:32.527Z,101490.75
2022-11-20T07:06:02.031Z,101487.31
2022-11-20T07:08:29.083Z,101482.97
2022-11-20T07:11:01.223Z,101488.16
2022-11-20T07:13:29.064Z,101489.03
2022-11-20T07:15:56.844Z,101479.53
2022-11-20T07:18:30.764Z,101472.63
2022-11-20T07:21:07.064Z,101472.63
2022-11-20T07:23:36.334Z,101471.75
2022-11-20T07:26:12.296Z,101467.44
2022-11-20T07:28:39.887Z,101471.75
2022-11-20T07:31:14.624Z,101472.63
2022-11-20T07:33:44.570Z,101471.75
2022-11-20T07:36:11.449Z,101470.88
2022-11-20T07:38:38.826Z,101470.03
2022-11-20T07:41:05.817Z,101474.34
2022-11-20T07:43:41.011Z,101470.03
2022-11-20T07:46:11.585Z,101476.06
2022-11-20T07:48:42.237Z,101478.69
2022-11-20T07:51:09.135Z,101479.56
2022-11-20T07:53:35.830Z,101477.81
2022-11-20T07:56:04.176Z,101481.28
2022-11-20T07:58:34.346Z,101473.50
2022-11-20T08:01:08.511Z,101464.84
2022-11-20T08:03:37.841Z,101461.34
2022-11-20T08:06:05.262Z,101455.28
2022-11-20T08:08:33.788Z,101451.81
2022-11-20T08:11:21.378Z,101446.63
2022-11-20T08:14:07.668Z,101453.50
2022-11-20T08:16:34.666Z,101437.88
2022-11-20T08:19:03.897Z,101439.59
2022-11-20T08:21:37.770Z,101439.56
2022-11-20T08:24:05.555Z,101437.81
2022-11-20T08:26:33.732Z,101424.81
2022-11-20T08:29:01.018Z,101429.06
2022-11-20T08:31:28.562Z,101429.00
2022-11-20T08:33:56.018Z,101444.59
2022-11-20T08:36:24.105Z,101431.56
2022-11-20T08:38:55.865Z,101437.59
2022-11-20T08:41:27.974Z,101440.19
2022-11-20T08:44:00.863Z,101443.63
2022-11-20T08:46:33.354Z,101439.25
2022-11-20T08:49:00.424Z,101437.50
2022-11-20T08:51:27.466Z,101444.34
2022-11-20T08:53:55.152Z,101434.78
2022-11-20T08:56:22.106Z,101439.03
2022-11-20T08:59:17.858Z,101439.00
2022-11-20T09:01:42.115Z,101425.97
2022-11-20T09:04:09.059Z,101422.47
2022-11-20T09:06:35.907Z,101417.28
2022-11-20T09:09:06.668Z,101421.59
2022-11-20T09:11:33.690Z,101403.41
2022-11-20T09:14:01.249Z,101402.44
2022-11-20T09:16:27.995Z,101405.84
2022-11-20T09:19:20.243Z,101398.84
2022-11-20T09:21:42.051Z,101394.47
2022-11-20T09:24:09.013Z,101400.38
2022-11-20T09:26:35.889Z,101393.41
2022-11-20T09:29:07.143Z,101393.38
2022-11-20T09:31:34.528Z,101383.03
2022-11-20T09:34:03.361Z,101376.75
2022-11-20T09:36:37.299Z,101373.25
2022-11-20T09:39:07.944Z,101368.81
2022-11-20T09:42:54.180Z,101364.38
2022-11-20T09:45:15.021Z,101359.97
2022-11-20T09:48:00.951Z,101362.47
2022-11-20T09:50:37.614Z,101368.44
2022-11-20T09:53:29.048Z,101363.28
2022-11-20T09:55:58.388Z,101357.06
2022-11-20T09:58:40.671Z,101347.41
2022-11-20T10:01:20.860Z,101349.06
2022-11-20T10:03:55.207Z,101363.72
2022-11-20T10:06:31.338Z,101353.19
2022-11-20T10:09:13.301Z,101348.81
2022-11-20T10:12:14.539Z,101349.63
2022-11-20T10:15:05.920Z,101333.88
2022-11-20T10:17:57.952Z,101345.94
2022-11-20T10:21:02.211Z,101334.47
2022-11-20T10:23:46.861Z,101330.88
2022-11-20T10:26:38.869Z,101318.56
2022-11-20T10:29:13.933Z,101306.13
2022-11-20T10:32:03.161Z,101302.47
2022-11-20T10:34:53.482Z,101309.31
2022-11-20T10:37:28.326Z,101307.53
2022-11-20T10:40:01.685Z,101300.44
2022-11-20T10:42:43.876Z,101297.56
2022-11-20T10:45:38.181Z,101287.81
2022-11-20T10:48:28.039Z,101291.22
2022-11-20T10:51:17.368Z,101287.53
2022-11-20T10:54:08.079Z,101272.63
2022-11-20T10:56:46.891Z,101274.19
2022-11-20T10:59:29.263Z,101259.47
2022-11-20T11:01:56.822Z,101255.88
2022-11-20T11:04:38.017Z,101251.31
2022-11-20T11:07:22.951Z,101254.03
2022-11-20T11:09:54.916Z,101253.09
2022-11-20T11:12:29.548Z,101244.38
2022-11-20T11:14:58.740Z,101237.28
2022-11-20T11:17:48.928Z,101233.69
2022-11-20T11:20:28.699Z,101237.22
2022-11-20T11:22:58.900Z,101226.72
2022-11-20T11:25:36.836Z,101228.28
2022-11-20T11:33:12.211Z,101222.81
2022-11-20T11:35:51.868Z,101207.88
2022-11-20T11:38:24.553Z,101195.97
2022-11-20T11:40:55.763Z,101190.69
2022-11-20T11:57:59.195Z,101167.09
2022-11-20T12:00:27.311Z,101165.47
2022-11-20T12:03:19.177Z,101161.00
2022-11-20T12:06:10.016Z,101151.31
2022-11-20T12:08:57.828Z,101142.03
2022-11-20T12:11:49.942Z,101132.56
2022-11-20T12:14:35.110Z,101139.41
2022-11-20T12:17:09.079Z,101142.03
2022-11-20T12:19:36.285Z,101130.44
2022-11-20T12:22:05.105Z,101126.91
2022-11-20T12:24:33.989Z,101132.09
2022-11-20T12:27:35.330Z,101117.22
2022-11-20T12:30:19.995Z,101118.25
2022-11-20T12:33:13.545Z,101125.06
2022-11-20T12:35:58.356Z,101116.38
2022-11-20T12:38:43.721Z,101106.69
2022-11-20T12:41:40.498Z,101101.47
2022-11-20T12:44:39.548Z,101101.53
2022-11-20T12:47:34.470Z,101081.38
2022-11-20T12:50:32.581Z,101074.50
2022-11-20T12:53:34.999Z,101076.91
2022-11-20T12:56:41.150Z,101055.22
2022-11-20T12:59:45.831Z,101046.53
2022-11-20T13:02:40.236Z,101046.41
2022-11-20T13:05:25.623Z,101059.28
2022-11-20T13:07:54.784Z,101040.22
2022-11-20T13:10:45.201Z,101034.72
2022-11-20T13:13:45.654Z,101012.47
2022-11-20T13:16:51.620Z,101020.72
2022-11-20T13:19:20.103Z,101014.72
2022-11-20T13:21:52.438Z,100996.72
2022-11-20T13:24:24.644Z,101000.56
2022-11-20T13:27:19.832Z,100973.94
2022-11-20T13:30:00.721Z,100987.44
2022-11-20T13:32:33.342Z,100972.94
2022-11-20T13:35:08.915Z,100963.63
2022-11-20T13:37:39.877Z,100987.50
2022-11-20T13:40:23.400Z,100982.13
2022-11-20T13:43:24.620Z,100980.31
2022-11-20T13:45:59.989Z,100994.09
2022-11-20T13:48:34.208Z,100985.53
2022-11-20T13:51:24.620Z,100970.63
2022-11-20T13:54:15.231Z,100973.19
2022-11-20T13:57:17.082Z,100968.00
2022-11-20T14:00:13.240Z,100967.88
2022-11-20T14:02:44.017Z,100954.88
2022-11-20T14:05:24.156Z,100947.78
2022-11-20T14:07:54.011Z,100939.06
2022-11-20T14:10:25.901Z,100935.78
2022-11-20T14:12:59.359Z,100915.81
2022-11-20T14:15:44.433Z,100910.63
2022-11-20T14:18:21.283Z,100915.66
2022-11-20T14:20:55.012Z,100912.13
2022-11-20T14:23:30.065Z,100908.28
2022-11-20T14:25:59.120Z,100901.53
2022-11-20T14:28:31.861Z,100879.38
2022-11-20T14:30:59.122Z,100883.47
2022-11-20T14:33:29.520Z,100900.44
2022-11-20T14:35:59.056Z,100876.38
2022-11-20T14:38:30.336Z,100883.19
2022-11-20T14:41:18.345Z,100881.06
2022-11-20T14:43:56.068Z,100872.72
2022-11-20T14:46:23.365Z,100883.88
2022-11-20T14:48:58.156Z,100874.31
2022-11-20T14:51:34.032Z,100877.75
2022-11-20T14:54:35.463Z,100859.75
2022-11-20T14:57:04.861Z,100869.19
2022-11-20T14:59:34.778Z,100870.75
2022-11-20T15:02:11.553Z,100858.63
2022-11-20T15:04:58.532Z,100856.03
2022-11-20T15:07:47.216Z,100868.94
2022-11-20T15:10:22.775Z,100858.59
2022-11-20T15:12:53.114Z,100856.06
2022-11-20T15:15:49.467Z,100853.59
2022-11-20T15:18:22.131Z,100844.06
2022-11-20T15:20:51.702Z,100845.97
2022-11-20T15:23:22.410Z,100840.78
2022-11-20T15:25:50.005Z,100840.72
2022-11-20T15:28:34.964Z,100835.41
2022-11-20T15:31:04.771Z,100839.63
2022-11-20T15:33:35.370Z,100841.34
2022-11-20T15:36:04.046Z,100827.59
2022-11-20T15:38:31.206Z,100810.50
2022-11-20T15:41:01.971Z,100821.41
2022-11-20T15:43:34.404Z,100821.63
2022-11-20T15:46:06.098Z,100831.06
2022-11-20T15:48:52.282Z,100830.16
2022-11-20T15:51:42.403Z,100825.25
2022-11-20T15:54:14.615Z,100812.31
2022-11-20T15:56:41.662Z,100818.41
2022-11-20T15:59:08.909Z,100813.94
2022-11-20T16:01:42.577Z,100805.88
2022-11-20T16:04:14.321Z,100805.88
2022-11-20T16:06:47.020Z,100789.66
2022-11-20T16:09:14.231Z,100774.00
2022-11-20T16:11:46.670Z,100788.13
2022-11-20T16:14:32.289Z,100790.69
2022-11-20T16:16:59.165Z,100780.31
2022-11-20T16:19:26.067Z,100781.13
2022-11-20T16:21:54.365Z,100778.56
2022-11-20T16:24:39.103Z,100774.25
2022-11-20T16:27:08.860Z,100763.03
2022-11-20T16:29:36.065Z,100767.47
2022-11-20T16:32:04.146Z,100749.53
2022-11-20T16:34:31.180Z,100754.75
2022-11-20T16:37:01.822Z,100754.44
2022-11-20T16:39:37.633Z,100755.94
2022-11-20T16:42:06.368Z,100754.38
2022-11-20T16:44:36.063Z,100749.25
2022-11-20T16:47:06.313Z,100752.56
2022-11-20T16:49:34.607Z,100738.91
2022-11-20T16:52:09.071Z,100761.81
2022-11-20T16:54:39.626Z,100757.16
2022-11-20T16:57:09.640Z,100722.25
2022-11-20T16:59:36.557Z,100721.19
2022-11-20T17:02:14.395Z,100716.34
2022-11-20T17:04:44.122Z,100719.63
2022-11-20T17:07:20.312Z,100711.69
2022-11-20T17:09:48.480Z,100700.59
2022-11-20T17:12:15.449Z,100708.22
2022-11-20T17:14:42.899Z,100718.50
2022-11-20T17:17:10.202Z,100690.41
2022-11-20T17:19:36.994Z,100707.03
2022-11-20T17:22:04.934Z,100706.13
2022-11-20T17:24:32.952Z,100680.69
2022-11-20T17:26:59.791Z,100700.47
2022-11-20T17:29:26.456Z,100697.00
2022-11-20T17:32:20.123Z,100703.47
2022-11-20T17:34:46.778Z,100704.34
2022-11-20T17:37:13.341Z,100701.97
2022-11-20T17:39:40.228Z,100691.56
2022-11-20T17:42:25.482Z,100713.13
2022-11-20T17:44:53.146Z,100708.59
2022-11-20T17:47:20.035Z,100709.59
2022-11-20T17:49:46.534Z,100702.66
2022-11-20T17:52:12.997Z,100703.66
2022-11-20T17:54:39.469Z,100698.44
2022-11-20T17:57:25.353Z,100709.66
2022-11-20T17:59:54.704Z,100701.84
2022-11-20T18:02:21.205Z,100695.66
2022-11-20T18:04:48.826Z,100692.28
2022-11-20T18:07:15.357Z,100705.25
2022-11-20T18:09:42.782Z,100705.25
2022-11-20T18:12:09.453Z,100693.81
2022-11-20T18:14:36.536Z,100692.09
2022-11-20T18:17:11.250Z,100688.78
2022-11-20T18:19:51.565Z,100690.41
2022-11-20T18:22:27.552Z,100693.88
2022-11-20T18:24:54.454Z,100697.34
2022-11-20T18:27:23.931Z,100693.88
2022-11-20T18:29:53.174Z,100694.81
2022-11-20T18:32:21.751Z,100700.19
2022-11-20T18:34:51.738Z,100707.13
2022-11-20T18:37:19.785Z,100710.78
2022-11-20T18:39:51.561Z,100694.88
2022-11-20T18:42:45.804Z,100710.03
2022-11-20T18:45:16.357Z,100702.47
2022-11-20T18:47:44.508Z,100697.19
2022-11-20T18:50:12.123Z,100737.31
2022-11-20T18:52:41.877Z,100732.28
2022-11-20T18:55:09.872Z,100716.13
2022-11-20T18:57:39.730Z,100678.13
2022-11-20T19:00:09.689Z,100684.09
2022-11-20T19:02:42.975Z,100671.13
2022-11-20T19:05:14.280Z,100692.41
2022-11-20T19:07:42.519Z,100706.03
2022-11-20T19:10:09.744Z,100709.34
2022-11-20T19:12:36.876Z,100700.75
2022-11-20T19:15:06.268Z,100700.88
2022-11-20T19:17:35.995Z,100706.84
2022-11-20T19:20:02.832Z,100712.06
2022-11-20T19:22:33.409Z,100714.81
2022-11-20T19:25:00.237Z,100715.50
2022-11-20T19:27:27.095Z,100710.41
2022-11-20T19:29:59.591Z,100710.88
2022-11-20T19:32:27.585Z,100717.88
2022-11-20T19:34:54.853Z,100709.28
2022-11-20T19:37:30.434Z,100713.84
2022-11-20T19:40:04.486Z,100678.97
2022-11-20T19:42:32.833Z,100713.09
2022-11-20T19:45:02.069Z,100695.25
2022-11-20T19:48:07.305Z,100707.88
2022-11-20T19:50:26.721Z,100706.22
2022-11-20T19:52:58.494Z,100708.84
2022-11-20T19:55:25.648Z,100713.16
2022-11-20T19:57:52.573Z,100713.84
2022-11-20T20:00:29.600Z,100712.06
2022-11-20T20:03:01.854Z,100712.88
2022-11-20T20:05:28.654Z,100711.22
2022-11-20T20:08:08.441Z,100715.50
2022-11-20T20:10:35.865Z,100674.44
2022-11-20T20:13:02.981Z,100718.06
2022-11-20T20:15:29.881Z,100695.09
2022-11-20T20:17:59.336Z,100684.19
2022-11-20T20:20:26.913Z,100706.22
2022-11-20T20:22:58.696Z,100716.44
2022-11-20T20:25:34.497Z,100699.50
2022-11-20T20:28:01.372Z,100701.06
2022-11-20T20:30:29.924Z,100730.38
2022-11-20T20:32:56.921Z,100719.06
2022-11-20T20:35:27.050Z,100730.50
2022-11-20T20:37:54.472Z,100709.06
2022-11-20T20:40:23.210Z,100731.34
2022-11-20T20:42:54.585Z,100725.50
2022-11-20T20:45:21.563Z,100718.78
2022-11-20T20:47:49.533Z,100751.16
2022-11-20T20:50:18.618Z,100753.72
2022-11-20T20:52:58.327Z,100749.84
2022-11-20T20:55:25.837Z,100731.91
2022-11-20T20:57:54.330Z,100710.56
2022-11-20T21:00:33.199Z,100756.44
2022-11-20T21:03:07.295Z,100749.00
2022-11-20T21:05:34.029Z,100758.44
2022-11-20T21:08:20.628Z,100744.09
2022-11-20T21:10:52.730Z,100746.06
2022-11-20T21:13:21.912Z,100751.44
2022-11-20T21:15:50.225Z,100748.25
2022-11-20T21:18:19.766Z,100759.69
2022-11-20T21:21:05.996Z,100765.88
2022-11-20T21:23:33.604Z,100780.50
2022-11-20T21:26:04.015Z,100791.81
2022-11-20T21:28:38.138Z,100779.91
2022-11-20T21:31:07.540Z,100790.47
2022-11-20T21:33:42.576Z,100791.22
2022-11-20T21:36:11.173Z,100794.75
2022-11-20T21:38:38.405Z,100774.34
2022-11-20T21:41:07.605Z,100781.41
2022-11-20T21:43:35.164Z,100794.38
2022-11-20T21:46:04.613Z,100776.41
2022-11-20T21:48:35.036Z,100787.44
2022-11-20T21:51:11.062Z,100779.56
2022-11-20T21:53:42.841Z,100795.75
2022-11-20T21:56:12.841Z,100812.22
2022-11-20T21:58:43.176Z,100768.22
2022-11-20T22:01:12.750Z,100803.00
2022-11-20T22:03:40.831Z,100771.53
2022-11-20T22:06:09.302Z,100798.91
2022-11-20T22:08:38.683Z,100802.78
2022-11-20T22:11:08.896Z,100828.06
2022-11-20T22:13:54.721Z,100834.19
2022-11-20T22:16:21.868Z,100826.41
2022-11-20T22:18:52.147Z,100813.72
2022-11-20T22:21:24.067Z,100786.63
2022-11-20T22:23:51.531Z,100804.53
2022-11-20T22:26:21.263Z,100790.56
2022-11-20T22:28:54.457Z,100812.22
2022-11-20T22:31:23.152Z,100838.16
2022-11-20T22:33:50.459Z,100851.19
2022-11-20T22:36:24.162Z,100863.31
2022-11-20T22:38:53.733Z,100852.28
2022-11-20T22:41:27.686Z,100856.31
2022-11-20T22:43:59.133Z,100858.72
2022-11-20T22:46:28.811Z,100855.56
2022-11-20T22:48:58.236Z,100865.03
2022-11-20T22:51:29.107Z,100859.03
2022-11-20T22:53:56.117Z,100853.91
2022-11-20T22:56:24.001Z,100871.09
2022-11-20T22:58:52.976Z,100868.78
2022-11-20T23:01:28.358Z,100873.06
2022-11-20T23:04:00.648Z,100862.69
2022-11-20T23:06:30.922Z,100864.47
2022-11-20T23:08:57.729Z,100872.16
2022-11-20T23:11:29.336Z,100873.16
2022-11-20T23:14:01.521Z,100864.47
2022-11-20T23:16:30.012Z,100871.34
2022-11-20T23:19:02.065Z,100871.34
2022-11-20T23:21:28.738Z,100859.38
2022-11-20T23:23:57.865Z,100861.84
2022-11-20T23:26:28.073Z,100867.84
2022-11-20T23:28:57.806Z,100869.69
2022-11-20T23:31:25.530Z,100875.16
2022-11-20T23:33:54.267Z,100876.91
2022-11-20T23:36:21.268Z,100886.38
2022-11-20T23:38:48.108Z,100876.88
2022-11-20T23:41:16.180Z,100879.44
2022-11-20T23:43:45.571Z,100875.13
2022-11-20T23:46:16.193Z,100855.19
2022-11-20T23:48:45.522Z,100873.06
2022-11-20T23:51:12.739Z,100872.97
2022-11-20T23:53:39.355Z,100877.38
2022-11-20T23:56:06.746Z,100882.75
2022-11-20T23:58:36.870Z,100865.41
